Latest Weather Observations for West Wyalong

IDN60801

Issued at 11:32 am EST Tuesday 22 August 2017 (issued every 30 minutes, with the page automatically refreshed every 10 minutes)

About weather observations | Map of weather stations | Latest weather observations for NSW | Other Formats
Station Details ID: 050017 Name: WEST WYALONG AIRPORT AWS Lat: -33.94 Lon: 147.20 Height: 257.0 m
Data from the previous 72 hours. | See also: Recent months at West Wyalong
Date/Time
EST
Temp
°C
App
Temp
°C
Dew
Point
°C
Rel
Hum
%
Delta-T
°C
Wind Press
QNH
hPa
Press
MSL
hPa
Rain since
9am
mm
Dir  Spd
km/h
Gust
km/h
Spd
kts
Gust
kts
22/11:30am 16.2 12.6 2.9 41 6.1 ENE 11 13 6 7 1019.3 1019.6 -
22/11:00am 15.6 11.4 4.0 46 5.4 ESE 15 20 8 11 1019.5 1019.8 1.0
22/10:30am 14.5 10.9 4.8 52 4.6 ESE 13 17 7 9 1019.5 1019.8 0.0
22/10:00am 12.8 9.6 5.0 59 3.6 ESE 11 15 6 8 1019.6 1019.9 0.0
22/09:30am 10.9 7.2 4.6 65 2.9 ESE 13 17 7 9 1019.4 1019.7 0.0
22/09:00am 9.1 5.9 5.1 76 1.8 SE 11 13 6 7 1019.4 1019.7 0.0
22/08:30am 7.2 3.9 4.3 82 1.3 SE 11 15 6 8 1019.2 1019.5 0.0
22/08:00am 5.5 3.1 4.2 91 0.6 SE 6 9 3 5 1019.0 1019.3 0.0
22/07:30am 3.1 0.8 2.7 97 0.2 S 4 6 2 3 1018.7 1019.0 0.0
22/07:00am 1.4 -1.6 1.0 97 0.2 S 6 6 3 3 1018.2 1018.5 0.0
22/06:30am 1.3 -1.7 0.7 96 0.2 SSE 6 7 3 4 1017.8 1018.1 0.0
22/06:00am 1.8 0.0 1.2 96 0.2 CALM 0 2 0 1 1017.3 1017.5 0.0
22/05:30am 1.8 -1.1 1.2 96 0.2 SE 6 7 3 4 1017.3 1017.5 0.0
22/05:00am 2.3 0.2 1.7 96 0.2 SE 2 7 1 4 1017.1 1017.3 0.0
22/04:30am 2.5 0.1 1.9 96 0.2 SE 4 6 2 3 1016.8 1017.1 0.0
22/04:00am 2.2 -0.9 1.6 96 0.2 SE 7 7 4 4 1016.5 1016.8 0.0
22/03:30am 2.3 -0.6 1.7 96 0.2 S 6 7 3 4 1016.3 1016.6 0.0
22/03:00am 2.4 -0.4 1.8 96 0.2 SE 6 7 3 4 1015.9 1016.2 0.0
22/02:30am 2.5 -0.5 1.9 96 0.2 SSE 7 9 4 5 1016.1 1016.4 0.0
22/02:00am 2.1 -0.8 1.2 94 0.3 S 6 7 3 4 1016.3 1016.6 0.0
22/01:30am 2.6 -0.3 1.7 94 0.4 SE 6 7 3 4 1016.4 1016.7 0.0
22/01:00am 3.1 1.4 1.9 92 0.5 CALM 0 0 0 0 1016.6 1016.9 0.0
22/12:30am 4.0 2.1 3.0 93 0.4 SE 2 6 1 3 1016.7 1017.0 0.0
22/12:00am 4.6 2.0 3.4 92 0.5 ESE 6 7 3 4 1016.7 1017.0 0.0
 
Date/Time
EST
Temp
°C
App
Temp
°C
Dew
Point
°C
Rel
Hum
%
Delta-T
°C
Wind Press
QNH
hPa
Press
MSL
hPa
Rain since
9am
mm
Dir  Spd
km/h
Gust
km/h
Spd
kts
Gust
kts
21/11:30pm 4.7 2.1 3.0 89 0.7 SE 6 7 3 4 1017.1 1017.3 0.0
21/11:00pm 5.7 3.2 3.5 86 0.9 SE 6 7 3 4 1017.1 1017.3 0.0
21/10:30pm 6.8 4.3 3.8 81 1.3 SE 6 9 3 5 1016.9 1017.2 0.0
21/10:00pm 7.4 4.8 4.2 80 1.4 ESE 7 9 4 5 1016.8 1017.1 0.0
21/09:30pm 8.1 4.8 4.3 77 1.7 E 11 17 6 9 1016.7 1017.0 0.0
21/09:00pm 8.0 4.7 4.4 78 1.6 E 11 15 6 8 1016.6 1016.9 0.0
21/08:30pm 8.0 5.0 4.2 77 1.7 ESE 9 13 5 7 1016.8 1017.1 0.0
21/08:00pm 8.2 5.2 4.2 76 1.8 E 9 13 5 7 1016.8 1017.1 0.0
21/07:30pm 8.8 5.1 4.4 74 2.0 ESE 13 15 7 8 1016.7 1017.0 0.0
21/07:00pm 9.0 5.3 4.4 73 2.1 ESE 13 17 7 9 1016.5 1016.8 0.0
21/06:30pm 9.4 5.3 4.4 71 2.2 ESE 15 17 8 9 1016.1 1016.4 0.0
21/06:00pm 9.6 6.2 4.0 68 2.5 SE 11 15 6 8 1015.6 1015.9 0.0
21/05:30pm 10.6 6.1 4.1 64 2.9 ESE 17 24 9 13 1015.2 1015.5 0.0
21/05:00pm 11.4 6.8 3.9 60 3.4 SE 17 20 9 11 1015.1 1015.4 0.0
21/04:30pm 11.7 7.1 3.7 58 3.6 SE 17 22 9 12 1014.9 1015.2 0.0
21/04:00pm 12.4 7.6 2.8 52 4.3 SE 17 22 9 12 1014.7 1015.0 0.0
21/03:30pm 13.1 8.6 2.1 47 4.8 SE 15 20 8 11 1014.6 1014.9 0.0
21/03:00pm 13.3 8.3 1.6 45 5.1 E 17 20 9 11 1014.7 1015.0 0.0
21/02:30pm 13.6 10.6 0.6 41 5.6 ENE 6 9 3 5 1014.7 1015.0 0.0
21/02:00pm 13.2 10.0 0.6 42 5.4 NNW 7 9 4 5 1015.0 1015.3 0.0
21/01:30pm 12.7 8.0 1.1 45 5.0 NNW 15 32 8 17 1015.6 1015.9 0.0
21/01:00pm 13.1 8.4 0.8 43 5.3 NNW 15 20 8 11 1016.0 1016.3 0.0
21/12:30pm 13.1 7.3 0.2 41 5.5 N 20 26 11 14 1016.0 1016.3 0.0
21/12:00pm 13.6 8.0 0.9 42 5.5 N 20 28 11 15 1016.3 1016.6 0.0
21/11:30am 13.1 7.4 0.8 43 5.3 N 20 35 11 19 1016.8 1017.1 0.0
21/11:00am 12.3 5.8 0.4 44 5.0 N 24 33 13 18 1017.5 1017.7 0.0
21/10:30am 12.8 6.1 1.2 45 5.0 N 26 35 14 19 1017.7 1017.9 0.0
21/10:00am 12.4 7.2 0.2 43 5.1 N 17 24 9 13 1018.0 1018.3 0.0
21/09:30am 11.4 7.6 1.6 51 4.2 N 11 17 6 9 1017.8 1018.1 0.0
21/09:00am 8.2 4.3 1.4 62 2.8 N 11 15 6 8 1018.4 1018.7 0.0
21/08:30am 6.9 3.0 1.0 66 2.4 N 11 15 6 8 1018.7 1019.0 0.0
21/08:00am 5.6 2.6 1.9 77 1.5 N 7 11 4 6 1018.6 1018.9 0.0
21/07:30am 4.4 2.8 2.3 86 0.9 CALM 0 0 0 0 1018.6 1018.9 0.0
21/07:00am 3.9 1.0 1.3 83 1.0 NNE 6 9 3 5 1018.2 1018.5 0.0
21/06:30am 4.0 1.5 1.4 83 1.0 W 4 7 2 4 1018.0 1018.3 0.0
21/06:00am 3.7 0.0 2.1 89 0.6 NNE 11 13 6 7 1017.7 1017.9 0.0
21/05:30am 3.2 1.4 1.4 88 0.7 CALM 0 0 0 0 1018.2 1018.5 0.0
21/05:00am 3.2 1.0 0.9 85 0.9 ENE 2 6 1 3 1018.1 1018.4 0.0
21/04:30am 3.2 0.2 0.9 85 0.9 ESE 6 7 3 4 1018.3 1018.6 0.0
21/04:00am 3.5 1.7 1.5 87 0.8 CALM 0 0 0 0 1018.4 1018.7 0.0
21/03:30am 3.9 1.8 1.4 84 1.0 NNW 2 7 1 4 1018.7 1019.0 0.0
21/03:00am 4.0 2.2 1.5 84 1.0 CALM 0 0 0 0 1018.4 1018.7 0.0
21/02:30am 3.7 1.9 1.4 85 0.9 CALM 0 4 0 2 1018.6 1018.9 0.0
21/02:00am 3.5 1.7 1.2 85 0.9 CALM 0 0 0 0 1018.9 1019.2 0.0
21/01:30am 3.1 1.3 1.5 89 0.6 CALM 0 0 0 0 1018.8 1019.1 0.0
21/01:00am 2.7 0.9 0.9 88 0.7 CALM 0 0 0 0 1019.3 1019.6 0.0
21/12:30am 2.9 1.0 0.6 85 0.9 CALM 0 0 0 0 1019.8 1020.1 0.0
21/12:00am 1.6 -0.4 -0.2 88 0.7 CALM 0 0 0 0 1019.7 1020.0 0.0
 
Date/Time
EST
Temp
°C
App
Temp
°C
Dew
Point
°C
Rel
Hum
%
Delta-T
°C
Wind Press
QNH
hPa
Press
MSL
hPa
Rain since
9am
mm
Dir  Spd
km/h
Gust
km/h
Spd
kts
Gust
kts
20/11:30pm 1.2 -0.8 -0.3 90 0.6 CALM 0 0 0 0 1020.0 1020.3 0.0
20/11:00pm 1.0 -1.1 -0.6 89 0.6 CALM 0 0 0 0 1019.8 1020.1 0.0
20/10:30pm 0.8 -1.3 -0.5 91 0.5 CALM 0 0 0 0 1020.1 1020.4 0.0
20/10:00pm 0.4 -1.8 -1.5 87 0.7 CALM 0 0 0 0 1020.7 1021.0 0.0
20/09:30pm 0.4 -3.0 -2.1 83 0.9 W 6 6 3 3 1020.8 1021.1 0.0
20/09:00pm 1.3 -1.2 -0.9 85 0.8 WSW 2 7 1 4 1020.6 1020.9 0.0
20/08:30pm 1.4 -0.8 -1.8 79 1.1 CALM 0 0 0 0 1020.5 1020.8 0.0
20/08:00pm 2.1 -0.1 -1.9 75 1.4 CALM 0 0 0 0 1020.7 1021.0 0.0
20/07:30pm 3.0 0.9 -0.6 77 1.3 CALM 0 0 0 0 1020.8 1021.1 0.0
20/07:00pm 4.3 2.2 -0.9 69 1.9 CALM 0 0 0 0 1021.0 1021.4 0.0
20/06:30pm 5.3 3.0 -2.5 57 2.8 CALM 0 0 0 0 1021.2 1021.5 0.0
20/06:00pm 7.6 5.3 -2.1 50 3.7 CALM 0 0 0 0 1020.8 1021.1 0.0
20/05:30pm 10.9 7.3 -3.9 35 5.6 NE 6 7 3 4 1020.6 1020.9 0.0
20/05:00pm 12.2 8.5 -3.2 34 6.0 ENE 7 11 4 6 1020.7 1021.0 0.0
20/04:30pm 12.6 8.5 -3.2 33 6.2 E 9 15 5 8 1020.6 1020.9 0.0
20/04:00pm 12.7 8.5 -1.2 38 5.6 ESE 11 15 6 8 1021.0 1021.4 0.0
20/03:30pm 13.2 9.3 -1.2 37 5.9 SE 9 13 5 7 1021.4 1021.7 0.0
20/03:00pm 12.8 8.8 -1.9 36 5.9 S 9 15 5 8 1021.6 1021.9 0.0
20/02:30pm 12.8 9.5 -1.5 37 5.8 SE 6 11 3 6 1022.1 1022.4 0.0
20/02:00pm 12.6 8.9 -2.8 34 6.0 SSW 7 15 4 8 1022.6 1022.9 0.0
20/01:30pm 12.5 8.7 -0.7 40 5.4 SSE 9 17 5 9 1022.9 1023.2 0.0
20/01:00pm 12.4 8.9 -2.6 35 5.9 NE 6 11 3 6 1023.5 1023.8 0.0
20/12:30pm 11.3 8.0 -1.5 41 5.1 SW 6 11 3 6 1024.2 1024.5 0.0
20/12:00pm 10.9 7.0 -1.2 43 4.8 SSW 9 15 5 8 1024.8 1025.2 0.0
20/11:30am 10.5 6.5 -1.9 42 4.9 SE 9 19 5 10 1025.2 1025.5 0.0
20/11:00am 10.3 7.0 -1.4 44 4.6 E 6 13 3 7 1025.9 1026.2 0.0
20/10:30am 9.0 5.7 -1.1 49 4.0 SSE 6 7 3 4 1026.2 1026.5 0.0
20/10:00am 8.6 5.4 0.8 58 3.2 E 7 11 4 6 1026.3 1026.6 0.0
20/09:30am 7.0 3.9 1.5 68 2.3 ESE 7 9 4 5 1026.5 1026.8 0.0
20/09:00am 5.7 2.9 2.0 77 1.5 ESE 6 9 3 5 1026.5 1026.8 0.0
20/08:30am 3.9 1.0 1.4 84 1.0 SSW 6 7 3 4 1026.6 1026.9 0.0
20/08:00am 1.8 -0.7 1.4 97 0.2 WSW 4 6 2 3 1026.6 1026.9 0.0
20/07:30am -0.6 -3.9 -1.2 96 0.2 SW 6 7 3 4 1026.3 1026.6 0.0
20/07:00am -2.0 -5.7 -2.6 96 0.1 WSW 7 9 4 5 1026.2 1026.5 0.0
20/06:30am -2.3 -6.0 -3.0 95 0.1 WSW 7 9 4 5 1025.7 1026.0 0.0
20/06:00am -2.3 -6.0 -3.1 94 0.2 SW 7 9 4 5 1025.0 1025.4 0.0
20/05:30am -1.7 -4.4 -2.4 95 0.2 SW 2 6 1 3 1024.6 1025.0 0.0
20/05:00am -1.1 -4.7 -1.9 94 0.2 WSW 7 9 4 5 1024.5 1024.9 0.0
20/04:30am 0.3 -3.1 -0.5 94 0.3 SW 7 7 4 4 1024.6 1025.0 0.0
20/04:00am 0.7 -2.7 -0.3 93 0.4 WSW 7 9 4 5 1024.8 1025.2 0.0
20/03:30am 1.3 -2.0 0.3 93 0.4 WSW 7 11 4 6 1024.7 1025.1 0.0
20/03:00am 1.5 -2.5 0.5 93 0.4 WSW 11 13 6 7 1024.9 1025.3 0.0
20/02:30am 2.0 -2.0 0.7 91 0.5 WSW 11 15 6 8 1025.2 1025.5 0.0
20/02:00am 2.6 -1.7 1.3 91 0.5 WSW 13 15 7 8 1025.5 1025.8 0.0
20/01:30am 2.6 -0.9 1.0 89 0.6 WSW 9 11 5 6 1025.5 1025.8 0.0
20/01:00am 3.3 -1.3 1.5 88 0.7 SW 15 19 8 10 1025.4 1025.7 0.0
20/12:30am 2.9 -1.0 1.3 89 0.6 SW 11 13 6 7 1025.0 1025.4 0.0
20/12:00am 3.1 -1.2 1.2 87 0.7 SW 13 15 7 8 1025.2 1025.5 0.0
 
Date/Time
EST
Temp
°C
App
Temp
°C
Dew
Point
°C
Rel
Hum
%
Delta-T
°C
Wind Press
QNH
hPa
Press
MSL
hPa
Rain since
9am
mm
Dir  Spd
km/h
Gust
km/h
Spd
kts
Gust
kts
19/11:30pm 3.6 -0.7 1.0 83 1.0 WSW 13 17 7 9 1025.5 1025.8 0.0
19/11:00pm 3.4 -1.0 0.6 82 1.1 WSW 13 17 7 9 1025.6 1025.9 0.0
19/10:30pm 3.4 -1.3 0.6 82 1.1 SW 15 17 8 9 1025.6 1025.9 0.0
19/10:00pm 3.2 -1.2 0.3 81 1.1 SW 13 15 7 8 1025.4 1025.7 0.0
19/09:30pm 4.1 -0.3 0.4 77 1.4 WSW 13 15 7 8 1025.5 1025.8 0.0
19/09:00pm 4.4 0.4 0.6 76 1.5 WSW 11 13 6 7 1025.4 1025.7 0.0
19/08:30pm 4.7 0.7 0.3 73 1.7 SW 11 13 6 7 1025.3 1025.6 0.0
19/08:00pm 4.7 0.6 0.1 72 1.8 SW 11 11 6 6 1025.0 1025.4 0.0
19/07:30pm 5.5 1.0 -0.1 67 2.2 SSW 13 15 7 8 1024.9 1025.3 0.0
19/07:00pm 6.1 2.4 0.0 65 2.4 SSW 9 13 5 7 1024.9 1025.3 0.0
19/06:30pm 6.7 1.4 -0.3 61 2.7 SW 17 20 9 11 1024.6 1025.0 0.0
19/06:00pm 7.6 2.7 -0.6 56 3.2 SW 15 17 8 9 1024.4 1024.8 0.0
19/05:30pm 9.2 3.4 -0.1 52 3.8 SSW 20 26 11 14 1024.2 1024.5 0.0
19/05:00pm 10.3 4.1 -0.2 48 4.3 S 22 32 12 17 1023.7 1024.0 0.0
19/04:30pm 10.8 5.0 -0.3 46 4.5 SSW 20 30 11 16 1023.6 1023.9 0.0
19/04:00pm 10.3 4.4 -0.5 47 4.3 SSW 20 30 11 16 1023.5 1023.8 0.0
19/03:30pm 11.3 4.9 0.7 48 4.5 SSW 24 35 13 19 1023.1 1023.4 0.0
19/03:00pm 10.4 3.4 -0.4 47 4.4 SSW 26 35 14 19 1023.1 1023.4 0.0
19/02:30pm 11.0 4.8 -0.2 46 4.6 SSW 22 35 12 19 1023.0 1023.3 0.0
19/02:00pm 10.2 4.3 1.6 55 3.6 SSW 22 32 12 17 1023.1 1023.4 0.0
19/01:30pm 10.4 4.5 1.8 55 3.7 SSW 22 30 12 16 1023.1 1023.4 0.0
19/01:00pm 9.9 4.5 2.7 61 3.1 SSW 20 28 11 15 1023.2 1023.5 0.0
19/12:30pm 9.9 4.4 2.0 58 3.4 SW 20 30 11 16 1023.4 1023.7 0.0
19/12:00pm 9.3 3.9 2.6 63 2.9 SSW 20 30 11 16 1023.8 1024.1 0.0

Other Formats:

Comma delimited format used in spreadsheet applications
http://www.bom.gov.au/fwo/IDN60801/IDN60801.95709.axf

JavaScript Object Notation format (JSON) in row-major order
http://www.bom.gov.au/fwo/IDN60801/IDN60801.95709.json